sensor_id;sensor_type;location;lat;lon;timestamp;P1;durP1;ratioP1;P2;durP2;ratioP2
2259;SDS011;333;48.800;9.530;2022-12-20T00:00:05;52.90;;;31.47;;
2259;SDS011;333;48.800;9.530;2022-12-20T00:02:33;49.83;;;31.00;;
2259;SDS011;333;48.800;9.530;2022-12-20T00:05:00;41.70;;;28.70;;
2259;SDS011;333;48.800;9.530;2022-12-20T00:07:27;32.93;;;27.17;;
2259;SDS011;333;48.800;9.530;2022-12-20T00:09:54;40.57;;;28.50;;
2259;SDS011;333;48.800;9.530;2022-12-20T00:12:22;45.20;;;28.47;;
2259;SDS011;333;48.800;9.530;2022-12-20T00:14:51;42.13;;;30.30;;
2259;SDS011;333;48.800;9.530;2022-12-20T00:17:18;42.03;;;27.17;;
2259;SDS011;333;48.800;9.530;2022-12-20T00:19:45;45.00;;;31.47;;
2259;SDS011;333;48.800;9.530;2022-12-20T00:22:12;39.27;;;27.93;;
2259;SDS011;333;48.800;9.530;2022-12-20T00:24:40;43.13;;;28.27;;
2259;SDS011;333;48.800;9.530;2022-12-20T00:27:07;44.33;;;27.83;;
2259;SDS011;333;48.800;9.530;2022-12-20T00:29:34;40.33;;;27.60;;
2259;SDS011;333;48.800;9.530;2022-12-20T00:32:03;46.57;;;29.37;;
2259;SDS011;333;48.800;9.530;2022-12-20T00:34:30;38.10;;;27.27;;
2259;SDS011;333;48.800;9.530;2022-12-20T00:36:57;44.90;;;31.30;;
2259;SDS011;333;48.800;9.530;2022-12-20T00:39:24;43.00;;;29.67;;
2259;SDS011;333;48.800;9.530;2022-12-20T00:41:51;37.93;;;28.00;;
2259;SDS011;333;48.800;9.530;2022-12-20T00:44:19;41.03;;;28.77;;
2259;SDS011;333;48.800;9.530;2022-12-20T00:46:46;42.27;;;27.33;;
2259;SDS011;333;48.800;9.530;2022-12-20T00:49:15;45.30;;;26.10;;
2259;SDS011;333;48.800;9.530;2022-12-20T00:51:42;42.57;;;28.10;;
2259;SDS011;333;48.800;9.530;2022-12-20T00:54:09;41.40;;;30.57;;
2259;SDS011;333;48.800;9.530;2022-12-20T00:56:36;38.97;;;26.90;;
2259;SDS011;333;48.800;9.530;2022-12-20T00:59:04;43.00;;;27.97;;
2259;SDS011;333;48.800;9.530;2022-12-20T01:01:31;40.77;;;27.03;;
2259;SDS011;333;48.800;9.530;2022-12-20T01:03:59;34.10;;;25.17;;
2259;SDS011;333;48.800;9.530;2022-12-20T01:06:28;47.50;;;27.53;;
2259;SDS011;333;48.800;9.530;2022-12-20T01:08:56;39.83;;;28.33;;
2259;SDS011;333;48.800;9.530;2022-12-20T01:11:24;40.43;;;25.83;;
2259;SDS011;333;48.800;9.530;2022-12-20T01:13:53;39.10;;;26.97;;
2259;SDS011;333;48.800;9.530;2022-12-20T01:16:22;43.33;;;28.67;;
2259;SDS011;333;48.800;9.530;2022-12-20T01:18:50;43.73;;;26.87;;
2259;SDS011;333;48.800;9.530;2022-12-20T01:21:18;39.67;;;27.30;;
2259;SDS011;333;48.800;9.530;2022-12-20T01:23:47;38.97;;;26.60;;
2259;SDS011;333;48.800;9.530;2022-12-20T01:26:15;41.37;;;26.90;;
2259;SDS011;333;48.800;9.530;2022-12-20T01:28:44;34.80;;;25.27;;
2259;SDS011;333;48.800;9.530;2022-12-20T01:31:12;40.80;;;26.33;;
2259;SDS011;333;48.800;9.530;2022-12-20T01:33:40;36.80;;;27.47;;
2259;SDS011;333;48.800;9.530;2022-12-20T01:36:09;40.27;;;27.03;;
2259;SDS011;333;48.800;9.530;2022-12-20T01:38:37;37.80;;;25.73;;
2259;SDS011;333;48.800;9.530;2022-12-20T01:41:06;38.50;;;27.57;;
2259;SDS011;333;48.800;9.530;2022-12-20T01:43:47;37.13;;;26.80;;
2259;SDS011;333;48.800;9.530;2022-12-20T01:46:15;36.13;;;26.17;;
2259;SDS011;333;48.800;9.530;2022-12-20T01:48:45;43.97;;;27.63;;
2259;SDS011;333;48.800;9.530;2022-12-20T01:51:15;44.67;;;27.90;;
2259;SDS011;333;48.800;9.530;2022-12-20T01:53:43;41.90;;;28.80;;
2259;SDS011;333;48.800;9.530;2022-12-20T01:56:12;35.87;;;27.40;;
2259;SDS011;333;48.800;9.530;2022-12-20T01:58:40;43.70;;;28.47;;
2259;SDS011;333;48.800;9.530;2022-12-20T02:01:09;38.37;;;27.10;;
2259;SDS011;333;48.800;9.530;2022-12-20T02:03:36;40.93;;;26.97;;
2259;SDS011;333;48.800;9.530;2022-12-20T02:06:14;37.67;;;27.10;;
2259;SDS011;333;48.800;9.530;2022-12-20T02:08:42;38.67;;;25.57;;
2259;SDS011;333;48.800;9.530;2022-12-20T02:11:13;39.17;;;27.90;;
2259;SDS011;333;48.800;9.530;2022-12-20T02:13:44;35.50;;;26.27;;
2259;SDS011;333;48.800;9.530;2022-12-20T02:16:16;33.00;;;26.40;;
2259;SDS011;333;48.800;9.530;2022-12-20T02:18:49;43.20;;;27.13;;
2259;SDS011;333;48.800;9.530;2022-12-20T02:21:21;36.17;;;25.60;;
2259;SDS011;333;48.800;9.530;2022-12-20T02:26:48;41.50;;;29.03;;
2259;SDS011;333;48.800;9.530;2022-12-20T02:29:22;42.27;;;28.33;;
2259;SDS011;333;48.800;9.530;2022-12-20T02:31:54;42.40;;;27.27;;
2259;SDS011;333;48.800;9.530;2022-12-20T02:34:22;35.90;;;27.33;;
2259;SDS011;333;48.800;9.530;2022-12-20T02:36:51;36.57;;;25.97;;
2259;SDS011;333;48.800;9.530;2022-12-20T02:39:18;37.63;;;27.20;;
2259;SDS011;333;48.800;9.530;2022-12-20T02:41:47;38.93;;;29.27;;
2259;SDS011;333;48.800;9.530;2022-12-20T02:44:16;37.60;;;26.43;;
2259;SDS011;333;48.800;9.530;2022-12-20T02:47:04;40.10;;;29.43;;
2259;SDS011;333;48.800;9.530;2022-12-20T02:49:34;35.40;;;27.17;;
2259;SDS011;333;48.800;9.530;2022-12-20T02:52:05;35.20;;;25.97;;
2259;SDS011;333;48.800;9.530;2022-12-20T02:54:33;38.50;;;28.40;;
2259;SDS011;333;48.800;9.530;2022-12-20T02:57:02;43.07;;;26.57;;
2259;SDS011;333;48.800;9.530;2022-12-20T02:59:33;35.93;;;24.57;;
2259;SDS011;333;48.800;9.530;2022-12-20T03:02:03;36.70;;;25.00;;
2259;SDS011;333;48.800;9.530;2022-12-20T03:04:32;33.70;;;25.43;;
2259;SDS011;333;48.800;9.530;2022-12-20T03:07:01;41.50;;;26.43;;
2259;SDS011;333;48.800;9.530;2022-12-20T03:09:29;39.07;;;29.10;;
2259;SDS011;333;48.800;9.530;2022-12-20T03:11:57;41.73;;;25.53;;
2259;SDS011;333;48.800;9.530;2022-12-20T03:14:25;38.47;;;26.27;;
2259;SDS011;333;48.800;9.530;2022-12-20T03:16:52;38.97;;;27.40;;
2259;SDS011;333;48.800;9.530;2022-12-20T03:19:21;36.87;;;26.57;;
2259;SDS011;333;48.800;9.530;2022-12-20T03:21:48;32.67;;;24.33;;
2259;SDS011;333;48.800;9.530;2022-12-20T03:24:15;37.60;;;24.50;;
2259;SDS011;333;48.800;9.530;2022-12-20T03:26:42;35.40;;;25.37;;
2259;SDS011;333;48.800;9.530;2022-12-20T03:29:10;35.27;;;25.03;;
2259;SDS011;333;48.800;9.530;2022-12-20T03:31:37;40.80;;;25.97;;
2259;SDS011;333;48.800;9.530;2022-12-20T03:34:04;40.90;;;26.53;;
2259;SDS011;333;48.800;9.530;2022-12-20T03:36:33;33.20;;;24.03;;
2259;SDS011;333;48.800;9.530;2022-12-20T03:39:00;32.13;;;25.20;;
2259;SDS011;333;48.800;9.530;2022-12-20T03:41:27;36.23;;;26.90;;
2259;SDS011;333;48.800;9.530;2022-12-20T03:43:55;40.67;;;25.30;;
2259;SDS011;333;48.800;9.530;2022-12-20T03:46:22;35.80;;;26.63;;
2259;SDS011;333;48.800;9.530;2022-12-20T03:48:49;32.57;;;24.40;;
2259;SDS011;333;48.800;9.530;2022-12-20T03:51:16;35.90;;;24.37;;
2259;SDS011;333;48.800;9.530;2022-12-20T03:53:45;35.37;;;23.73;;
2259;SDS011;333;48.800;9.530;2022-12-20T03:56:12;34.23;;;24.70;;
2259;SDS011;333;48.800;9.530;2022-12-20T03:58:40;35.77;;;26.10;;
2259;SDS011;333;48.800;9.530;2022-12-20T04:01:20;33.97;;;23.37;;
2259;SDS011;333;48.800;9.530;2022-12-20T04:03:47;31.67;;;23.90;;
2259;SDS011;333;48.800;9.530;2022-12-20T04:06:15;33.13;;;25.20;;
2259;SDS011;333;48.800;9.530;2022-12-20T04:08:42;33.00;;;23.10;;
2259;SDS011;333;48.800;9.530;2022-12-20T04:11:11;34.47;;;25.67;;
2259;SDS011;333;48.800;9.530;2022-12-20T04:13:41;34.53;;;24.27;;
2259;SDS011;333;48.800;9.530;2022-12-20T04:16:09;35.73;;;25.13;;
2259;SDS011;333;48.800;9.530;2022-12-20T04:18:36;34.20;;;25.33;;
2259;SDS011;333;48.800;9.530;2022-12-20T04:21:03;34.83;;;25.20;;
2259;SDS011;333;48.800;9.530;2022-12-20T04:23:31;32.40;;;25.10;;
2259;SDS011;333;48.800;9.530;2022-12-20T04:25:59;34.20;;;25.57;;
2259;SDS011;333;48.800;9.530;2022-12-20T04:28:28;30.37;;;24.33;;
2259;SDS011;333;48.800;9.530;2022-12-20T04:30:56;36.47;;;24.60;;
2259;SDS011;333;48.800;9.530;2022-12-20T04:33:23;36.03;;;25.60;;
2259;SDS011;333;48.800;9.530;2022-12-20T04:35:51;35.13;;;23.67;;
2259;SDS011;333;48.800;9.530;2022-12-20T04:38:18;36.80;;;24.83;;
2259;SDS011;333;48.800;9.530;2022-12-20T04:40:47;35.17;;;25.83;;
2259;SDS011;333;48.800;9.530;2022-12-20T04:43:15;32.30;;;24.93;;
2259;SDS011;333;48.800;9.530;2022-12-20T04:45:44;29.20;;;23.70;;
2259;SDS011;333;48.800;9.530;2022-12-20T04:48:13;30.07;;;23.17;;
2259;SDS011;333;48.800;9.530;2022-12-20T04:50:40;35.90;;;24.90;;
2259;SDS011;333;48.800;9.530;2022-12-20T04:53:07;32.30;;;25.17;;
2259;SDS011;333;48.800;9.530;2022-12-20T04:55:52;39.30;;;27.00;;
2259;SDS011;333;48.800;9.530;2022-12-20T04:58:19;37.87;;;26.10;;
2259;SDS011;333;48.800;9.530;2022-12-20T05:00:48;36.00;;;25.43;;
2259;SDS011;333;48.800;9.530;2022-12-20T05:03:16;37.80;;;24.10;;
2259;SDS011;333;48.800;9.530;2022-12-20T05:05:43;31.93;;;24.50;;
2259;SDS011;333;48.800;9.530;2022-12-20T05:08:10;36.00;;;28.00;;
2259;SDS011;333;48.800;9.530;2022-12-20T05:10:38;31.40;;;25.30;;
2259;SDS011;333;48.800;9.530;2022-12-20T05:13:05;34.90;;;24.23;;
2259;SDS011;333;48.800;9.530;2022-12-20T05:15:32;42.93;;;28.57;;
2259;SDS011;333;48.800;9.530;2022-12-20T05:18:01;31.93;;;26.03;;
2259;SDS011;333;48.800;9.530;2022-12-20T05:20:29;40.43;;;25.23;;
2259;SDS011;333;48.800;9.530;2022-12-20T05:22:56;37.60;;;24.97;;
2259;SDS011;333;48.800;9.530;2022-12-20T05:25:45;32.40;;;26.80;;
2259;SDS011;333;48.800;9.530;2022-12-20T05:28:30;35.27;;;24.50;;
2259;SDS011;333;48.800;9.530;2022-12-20T05:30:58;35.23;;;28.23;;
2259;SDS011;333;48.800;9.530;2022-12-20T05:33:27;37.73;;;28.20;;
2259;SDS011;333;48.800;9.530;2022-12-20T05:35:54;34.17;;;27.37;;
2259;SDS011;333;48.800;9.530;2022-12-20T05:38:22;35.10;;;24.60;;
2259;SDS011;333;48.800;9.530;2022-12-20T05:40:49;40.80;;;27.33;;
2259;SDS011;333;48.800;9.530;2022-12-20T05:43:17;36.60;;;26.63;;
2259;SDS011;333;48.800;9.530;2022-12-20T05:45:45;35.33;;;27.27;;
2259;SDS011;333;48.800;9.530;2022-12-20T05:48:12;41.17;;;27.23;;
2259;SDS011;333;48.800;9.530;2022-12-20T05:50:41;34.73;;;25.40;;
2259;SDS011;333;48.800;9.530;2022-12-20T05:53:10;40.47;;;26.73;;
2259;SDS011;333;48.800;9.530;2022-12-20T05:55:37;38.83;;;27.60;;
2259;SDS011;333;48.800;9.530;2022-12-20T05:58:05;27.13;;;22.70;;
2259;SDS011;333;48.800;9.530;2022-12-20T06:00:33;32.47;;;24.70;;
2259;SDS011;333;48.800;9.530;2022-12-20T06:03:01;32.60;;;24.20;;
2259;SDS011;333;48.800;9.530;2022-12-20T06:05:28;34.60;;;26.20;;
2259;SDS011;333;48.800;9.530;2022-12-20T06:07:57;35.10;;;26.53;;
2259;SDS011;333;48.800;9.530;2022-12-20T06:10:24;35.40;;;27.03;;
2259;SDS011;333;48.800;9.530;2022-12-20T06:12:52;45.77;;;29.13;;
2259;SDS011;333;48.800;9.530;2022-12-20T06:15:19;36.03;;;27.97;;
2259;SDS011;333;48.800;9.530;2022-12-20T06:17:46;31.90;;;27.50;;
2259;SDS011;333;48.800;9.530;2022-12-20T06:20:13;37.00;;;26.27;;
2259;SDS011;333;48.800;9.530;2022-12-20T06:22:40;54.33;;;44.83;;
2259;SDS011;333;48.800;9.530;2022-12-20T06:25:09;41.67;;;33.50;;
2259;SDS011;333;48.800;9.530;2022-12-20T06:27:39;35.73;;;28.33;;
2259;SDS011;333;48.800;9.530;2022-12-20T06:30:07;37.60;;;29.57;;
2259;SDS011;333;48.800;9.530;2022-12-20T06:32:34;35.90;;;28.80;;
2259;SDS011;333;48.800;9.530;2022-12-20T06:35:02;40.67;;;35.77;;
2259;SDS011;333;48.800;9.530;2022-12-20T06:37:30;41.80;;;30.53;;
2259;SDS011;333;48.800;9.530;2022-12-20T06:39:57;40.53;;;29.80;;
2259;SDS011;333;48.800;9.530;2022-12-20T06:42:26;41.33;;;28.40;;
2259;SDS011;333;48.800;9.530;2022-12-20T06:44:53;40.50;;;29.17;;
2259;SDS011;333;48.800;9.530;2022-12-20T06:47:20;41.87;;;30.93;;
2259;SDS011;333;48.800;9.530;2022-12-20T06:49:47;35.80;;;27.47;;
2259;SDS011;333;48.800;9.530;2022-12-20T06:52:15;39.80;;;27.27;;
2259;SDS011;333;48.800;9.530;2022-12-20T06:54:42;37.87;;;27.53;;
2259;SDS011;333;48.800;9.530;2022-12-20T06:57:09;32.70;;;26.47;;
2259;SDS011;333;48.800;9.530;2022-12-20T06:59:38;38.23;;;28.87;;
2259;SDS011;333;48.800;9.530;2022-12-20T07:02:05;38.40;;;27.00;;
2259;SDS011;333;48.800;9.530;2022-12-20T07:04:33;40.67;;;31.27;;
2259;SDS011;333;48.800;9.530;2022-12-20T07:07:00;49.53;;;28.90;;
2259;SDS011;333;48.800;9.530;2022-12-20T07:09:27;39.77;;;29.33;;
2259;SDS011;333;48.800;9.530;2022-12-20T07:11:55;44.47;;;29.00;;
2259;SDS011;333;48.800;9.530;2022-12-20T07:14:22;45.17;;;30.53;;
2259;SDS011;333;48.800;9.530;2022-12-20T07:16:51;42.67;;;30.47;;
2259;SDS011;333;48.800;9.530;2022-12-20T07:19:18;43.57;;;29.67;;
2259;SDS011;333;48.800;9.530;2022-12-20T07:21:46;41.80;;;30.90;;
2259;SDS011;333;48.800;9.530;2022-12-20T07:24:14;35.77;;;29.23;;
2259;SDS011;333;48.800;9.530;2022-12-20T07:26:42;41.70;;;31.10;;
2259;SDS011;333;48.800;9.530;2022-12-20T07:29:10;38.60;;;28.10;;
2259;SDS011;333;48.800;9.530;2022-12-20T07:31:38;45.57;;;30.70;;
2259;SDS011;333;48.800;9.530;2022-12-20T07:34:06;45.23;;;31.70;;
2259;SDS011;333;48.800;9.530;2022-12-20T07:36:34;44.37;;;31.20;;
2259;SDS011;333;48.800;9.530;2022-12-20T07:39:01;40.87;;;30.30;;
2259;SDS011;333;48.800;9.530;2022-12-20T07:41:28;38.50;;;29.87;;
2259;SDS011;333;48.800;9.530;2022-12-20T07:43:55;42.70;;;30.70;;
2259;SDS011;333;48.800;9.530;2022-12-20T07:46:23;42.70;;;28.97;;
2259;SDS011;333;48.800;9.530;2022-12-20T07:48:50;44.03;;;29.87;;
2259;SDS011;333;48.800;9.530;2022-12-20T07:51:20;40.50;;;30.07;;
2259;SDS011;333;48.800;9.530;2022-12-20T07:53:49;40.00;;;31.77;;
2259;SDS011;333;48.800;9.530;2022-12-20T07:56:16;48.00;;;33.47;;
2259;SDS011;333;48.800;9.530;2022-12-20T07:58:45;39.03;;;31.47;;
2259;SDS011;333;48.800;9.530;2022-12-20T08:01:12;38.67;;;29.33;;
2259;SDS011;333;48.800;9.530;2022-12-20T08:03:41;41.13;;;31.47;;
2259;SDS011;333;48.800;9.530;2022-12-20T08:06:10;33.30;;;29.53;;
2259;SDS011;333;48.800;9.530;2022-12-20T08:08:40;34.50;;;28.37;;
2259;SDS011;333;48.800;9.530;2022-12-20T08:11:08;41.90;;;28.17;;
2259;SDS011;333;48.800;9.530;2022-12-20T08:13:36;34.77;;;27.63;;
2259;SDS011;333;48.800;9.530;2022-12-20T08:16:04;33.33;;;27.27;;
2259;SDS011;333;48.800;9.530;2022-12-20T08:18:32;34.50;;;26.80;;
2259;SDS011;333;48.800;9.530;2022-12-20T08:20:59;33.90;;;27.40;;
2259;SDS011;333;48.800;9.530;2022-12-20T08:23:26;33.67;;;27.17;;
2259;SDS011;333;48.800;9.530;2022-12-20T08:25:55;30.40;;;24.33;;
2259;SDS011;333;48.800;9.530;2022-12-20T08:28:22;38.50;;;27.77;;
2259;SDS011;333;48.800;9.530;2022-12-20T08:30:49;37.27;;;28.60;;
2259;SDS011;333;48.800;9.530;2022-12-20T08:33:16;33.60;;;26.80;;
2259;SDS011;333;48.800;9.530;2022-12-20T08:35:44;34.07;;;26.97;;
2259;SDS011;333;48.800;9.530;2022-12-20T08:38:11;30.03;;;25.00;;
2259;SDS011;333;48.800;9.530;2022-12-20T08:40:38;30.80;;;26.10;;
2259;SDS011;333;48.800;9.530;2022-12-20T08:43:07;27.70;;;22.57;;
2259;SDS011;333;48.800;9.530;2022-12-20T08:45:34;26.60;;;21.40;;
2259;SDS011;333;48.800;9.530;2022-12-20T08:48:02;29.13;;;22.33;;
2259;SDS011;333;48.800;9.530;2022-12-20T08:50:29;27.50;;;23.10;;
2259;SDS011;333;48.800;9.530;2022-12-20T08:52:56;29.70;;;23.00;;
2259;SDS011;333;48.800;9.530;2022-12-20T08:55:23;27.97;;;21.63;;
2259;SDS011;333;48.800;9.530;2022-12-20T08:57:50;27.53;;;20.17;;
2259;SDS011;333;48.800;9.530;2022-12-20T09:00:19;27.40;;;19.83;;
2259;SDS011;333;48.800;9.530;2022-12-20T09:02:46;24.27;;;21.07;;
2259;SDS011;333;48.800;9.530;2022-12-20T09:05:15;28.43;;;23.50;;
2259;SDS011;333;48.800;9.530;2022-12-20T09:07:43;41.53;;;28.70;;
2259;SDS011;333;48.800;9.530;2022-12-20T09:10:10;23.53;;;20.20;;
2259;SDS011;333;48.800;9.530;2022-12-20T09:12:38;29.10;;;23.67;;
2259;SDS011;333;48.800;9.530;2022-12-20T09:15:06;26.30;;;21.53;;
2259;SDS011;333;48.800;9.530;2022-12-20T09:17:35;24.43;;;19.73;;
2259;SDS011;333;48.800;9.530;2022-12-20T09:20:02;27.43;;;21.90;;
2259;SDS011;333;48.800;9.530;2022-12-20T09:22:30;26.90;;;19.23;;
2259;SDS011;333;48.800;9.530;2022-12-20T09:24:57;29.13;;;21.87;;
2259;SDS011;333;48.800;9.530;2022-12-20T09:27:24;28.57;;;23.13;;
2259;SDS011;333;48.800;9.530;2022-12-20T09:29:51;27.93;;;21.80;;
2259;SDS011;333;48.800;9.530;2022-12-20T09:32:19;24.53;;;21.80;;
2259;SDS011;333;48.800;9.530;2022-12-20T09:34:47;25.37;;;21.10;;
2259;SDS011;333;48.800;9.530;2022-12-20T09:37:14;22.80;;;18.90;;
2259;SDS011;333;48.800;9.530;2022-12-20T09:39:42;24.87;;;20.13;;
2259;SDS011;333;48.800;9.530;2022-12-20T09:42:09;23.67;;;17.97;;
2259;SDS011;333;48.800;9.530;2022-12-20T09:44:37;23.57;;;19.63;;
2259;SDS011;333;48.800;9.530;2022-12-20T09:47:06;26.00;;;18.70;;
2259;SDS011;333;48.800;9.530;2022-12-20T09:49:37;24.43;;;19.67;;
2259;SDS011;333;48.800;9.530;2022-12-20T09:52:21;28.33;;;19.10;;
2259;SDS011;333;48.800;9.530;2022-12-20T09:54:53;23.67;;;20.07;;
2259;SDS011;333;48.800;9.530;2022-12-20T09:57:24;21.10;;;18.57;;
2259;SDS011;333;48.800;9.530;2022-12-20T09:59:54;20.30;;;18.27;;
2259;SDS011;333;48.800;9.530;2022-12-20T10:02:22;23.27;;;18.37;;
2259;SDS011;333;48.800;9.530;2022-12-20T10:04:50;23.90;;;19.53;;
2259;SDS011;333;48.800;9.530;2022-12-20T10:07:24;26.27;;;20.00;;
2259;SDS011;333;48.800;9.530;2022-12-20T10:10:02;24.43;;;20.00;;
2259;SDS011;333;48.800;9.530;2022-12-20T10:12:36;30.97;;;24.43;;
2259;SDS011;333;48.800;9.530;2022-12-20T10:15:17;23.67;;;21.10;;
2259;SDS011;333;48.800;9.530;2022-12-20T10:17:54;25.87;;;19.87;;
2259;SDS011;333;48.800;9.530;2022-12-20T10:20:27;24.80;;;20.70;;
2259;SDS011;333;48.800;9.530;2022-12-20T10:22:58;23.47;;;20.20;;
2259;SDS011;333;48.800;9.530;2022-12-20T10:25:28;26.20;;;20.30;;
2259;SDS011;333;48.800;9.530;2022-12-20T10:27:56;23.03;;;17.97;;
2259;SDS011;333;48.800;9.530;2022-12-20T10:30:24;24.73;;;18.33;;
2259;SDS011;333;48.800;9.530;2022-12-20T10:32:53;23.33;;;18.33;;
2259;SDS011;333;48.800;9.530;2022-12-20T10:35:22;22.37;;;19.90;;
2259;SDS011;333;48.800;9.530;2022-12-20T10:37:58;19.00;;;17.10;;
2259;SDS011;333;48.800;9.530;2022-12-20T10:40:26;21.80;;;18.00;;
2259;SDS011;333;48.800;9.530;2022-12-20T10:42:54;20.07;;;16.33;;
2259;SDS011;333;48.800;9.530;2022-12-20T10:45:31;21.43;;;16.70;;
2259;SDS011;333;48.800;9.530;2022-12-20T10:48:00;23.37;;;16.90;;
2259;SDS011;333;48.800;9.530;2022-12-20T10:50:27;20.33;;;17.30;;
2259;SDS011;333;48.800;9.530;2022-12-20T10:53:05;22.73;;;18.80;;
2259;SDS011;333;48.800;9.530;2022-12-20T10:55:39;24.10;;;17.53;;
2259;SDS011;333;48.800;9.530;2022-12-20T10:58:12;20.13;;;16.83;;
2259;SDS011;333;48.800;9.530;2022-12-20T11:00:40;21.97;;;17.90;;
2259;SDS011;333;48.800;9.530;2022-12-20T11:03:13;25.33;;;22.60;;
2259;SDS011;333;48.800;9.530;2022-12-20T11:05:51;22.97;;;20.47;;
2259;SDS011;333;48.800;9.530;2022-12-20T11:08:20;23.47;;;20.00;;
2259;SDS011;333;48.800;9.530;2022-12-20T11:10:48;24.50;;;20.30;;
2259;SDS011;333;48.800;9.530;2022-12-20T11:13:20;24.67;;;20.23;;
2259;SDS011;333;48.800;9.530;2022-12-20T11:15:48;21.80;;;18.87;;
2259;SDS011;333;48.800;9.530;2022-12-20T11:18:18;20.47;;;18.27;;
2259;SDS011;333;48.800;9.530;2022-12-20T11:20:46;24.27;;;19.33;;
2259;SDS011;333;48.800;9.530;2022-12-20T11:23:18;21.20;;;19.10;;
2259;SDS011;333;48.800;9.530;2022-12-20T11:25:52;25.00;;;19.93;;
2259;SDS011;333;48.800;9.530;2022-12-20T11:28:30;22.63;;;19.20;;
2259;SDS011;333;48.800;9.530;2022-12-20T11:31:04;20.83;;;18.80;;
2259;SDS011;333;48.800;9.530;2022-12-20T11:33:53;28.53;;;22.30;;
2259;SDS011;333;48.800;9.530;2022-12-20T11:36:23;27.37;;;21.20;;
2259;SDS011;333;48.800;9.530;2022-12-20T11:38:53;23.50;;;19.17;;
2259;SDS011;333;48.800;9.530;2022-12-20T11:41:27;23.17;;;19.37;;
2259;SDS011;333;48.800;9.530;2022-12-20T11:44:00;26.13;;;21.57;;
2259;SDS011;333;48.800;9.530;2022-12-20T11:46:46;30.30;;;20.40;;
2259;SDS011;333;48.800;9.530;2022-12-20T11:49:31;28.47;;;22.07;;
2259;SDS011;333;48.800;9.530;2022-12-20T11:52:00;26.23;;;21.67;;
2259;SDS011;333;48.800;9.530;2022-12-20T11:54:31;25.00;;;20.37;;
2259;SDS011;333;48.800;9.530;2022-12-20T11:57:00;25.47;;;21.30;;
2259;SDS011;333;48.800;9.530;2022-12-20T11:59:30;22.47;;;20.00;;
2259;SDS011;333;48.800;9.530;2022-12-20T12:02:03;23.77;;;20.27;;
2259;SDS011;333;48.800;9.530;2022-12-20T12:04:32;27.77;;;24.93;;
2259;SDS011;333;48.800;9.530;2022-12-20T12:07:00;30.90;;;27.07;;
2259;SDS011;333;48.800;9.530;2022-12-20T12:09:29;24.97;;;21.53;;
2259;SDS011;333;48.800;9.530;2022-12-20T12:12:00;26.50;;;19.43;;
2259;SDS011;333;48.800;9.530;2022-12-20T12:14:32;28.97;;;22.50;;
2259;SDS011;333;48.800;9.530;2022-12-20T12:17:04;27.37;;;23.30;;
2259;SDS011;333;48.800;9.530;2022-12-20T12:19:33;33.40;;;25.57;;
2259;SDS011;333;48.800;9.530;2022-12-20T12:22:04;26.03;;;23.27;;
2259;SDS011;333;48.800;9.530;2022-12-20T12:24:33;26.67;;;22.87;;
2259;SDS011;333;48.800;9.530;2022-12-20T12:27:04;24.60;;;21.83;;
2259;SDS011;333;48.800;9.530;2022-12-20T12:29:32;26.93;;;23.93;;
2259;SDS011;333;48.800;9.530;2022-12-20T12:32:01;24.67;;;20.03;;
2259;SDS011;333;48.800;9.530;2022-12-20T12:34:34;24.97;;;22.20;;
2259;SDS011;333;48.800;9.530;2022-12-20T12:37:11;25.70;;;22.97;;
2259;SDS011;333;48.800;9.530;2022-12-20T12:45:18;26.63;;;23.73;;
2259;SDS011;333;48.800;9.530;2022-12-20T12:47:47;23.87;;;20.53;;
2259;SDS011;333;48.800;9.530;2022-12-20T12:50:17;26.00;;;20.43;;
2259;SDS011;333;48.800;9.530;2022-12-20T12:52:47;21.90;;;19.27;;
2259;SDS011;333;48.800;9.530;2022-12-20T13:01:07;25.57;;;21.47;;
2259;SDS011;333;48.800;9.530;2022-12-20T13:03:39;21.73;;;19.00;;
2259;SDS011;333;48.800;9.530;2022-12-20T13:08:51;21.43;;;19.17;;
2259;SDS011;333;48.800;9.530;2022-12-20T13:11:36;21.67;;;19.47;;
2259;SDS011;333;48.800;9.530;2022-12-20T13:14:10;23.40;;;20.00;;
2259;SDS011;333;48.800;9.530;2022-12-20T13:16:39;24.10;;;19.77;;
2259;SDS011;333;48.800;9.530;2022-12-20T13:19:10;24.03;;;21.50;;
2259;SDS011;333;48.800;9.530;2022-12-20T13:21:39;23.83;;;20.90;;
2259;SDS011;333;48.800;9.530;2022-12-20T13:27:13;27.87;;;23.13;;
2259;SDS011;333;48.800;9.530;2022-12-20T13:29:50;24.50;;;21.90;;
2259;SDS011;333;48.800;9.530;2022-12-20T13:35:01;21.87;;;19.67;;
2259;SDS011;333;48.800;9.530;2022-12-20T13:37:49;23.90;;;21.43;;
2259;SDS011;333;48.800;9.530;2022-12-20T13:40:19;25.23;;;22.53;;
2259;SDS011;333;48.800;9.530;2022-12-20T13:42:47;24.67;;;21.80;;
2259;SDS011;333;48.800;9.530;2022-12-20T13:45:17;29.27;;;23.33;;
2259;SDS011;333;48.800;9.530;2022-12-20T13:47:45;24.90;;;20.57;;
2259;SDS011;333;48.800;9.530;2022-12-20T13:50:20;26.40;;;22.37;;
2259;SDS011;333;48.800;9.530;2022-12-20T13:52:48;26.33;;;21.70;;
2259;SDS011;333;48.800;9.530;2022-12-20T13:55:24;25.33;;;22.33;;
2259;SDS011;333;48.800;9.530;2022-12-20T13:57:51;24.60;;;20.90;;
2259;SDS011;333;48.800;9.530;2022-12-20T14:00:22;27.33;;;21.60;;
2259;SDS011;333;48.800;9.530;2022-12-20T14:02:50;24.40;;;21.50;;
2259;SDS011;333;48.800;9.530;2022-12-20T14:05:19;28.50;;;23.13;;
2259;SDS011;333;48.800;9.530;2022-12-20T14:07:56;31.57;;;23.90;;
2259;SDS011;333;48.800;9.530;2022-12-20T14:10:27;26.40;;;23.00;;
2259;SDS011;333;48.800;9.530;2022-12-20T14:12:54;26.30;;;23.47;;
2259;SDS011;333;48.800;9.530;2022-12-20T14:15:23;35.00;;;25.97;;
2259;SDS011;333;48.800;9.530;2022-12-20T14:17:50;29.17;;;26.03;;
2259;SDS011;333;48.800;9.530;2022-12-20T14:20:19;31.67;;;24.50;;
2259;SDS011;333;48.800;9.530;2022-12-20T14:22:51;30.50;;;23.50;;
2259;SDS011;333;48.800;9.530;2022-12-20T14:25:23;32.80;;;26.30;;
2259;SDS011;333;48.800;9.530;2022-12-20T14:27:54;31.60;;;28.57;;
2259;SDS011;333;48.800;9.530;2022-12-20T14:30:27;50.30;;;39.50;;
2259;SDS011;333;48.800;9.530;2022-12-20T14:32:54;35.93;;;29.47;;
2259;SDS011;333;48.800;9.530;2022-12-20T14:35:22;27.50;;;23.30;;
2259;SDS011;333;48.800;9.530;2022-12-20T14:37:53;29.33;;;24.60;;
2259;SDS011;333;48.800;9.530;2022-12-20T14:40:21;27.07;;;22.83;;
2259;SDS011;333;48.800;9.530;2022-12-20T14:42:49;32.07;;;25.00;;
2259;SDS011;333;48.800;9.530;2022-12-20T14:45:19;29.40;;;23.67;;
2259;SDS011;333;48.800;9.530;2022-12-20T14:47:47;28.10;;;24.83;;
2259;SDS011;333;48.800;9.530;2022-12-20T14:50:16;30.30;;;27.00;;
2259;SDS011;333;48.800;9.530;2022-12-20T14:52:44;29.80;;;24.57;;
2259;SDS011;333;48.800;9.530;2022-12-20T14:55:13;27.77;;;23.83;;
2259;SDS011;333;48.800;9.530;2022-12-20T14:57:43;28.00;;;24.33;;
2259;SDS011;333;48.800;9.530;2022-12-20T15:00:13;29.20;;;25.27;;
2259;SDS011;333;48.800;9.530;2022-12-20T15:02:45;27.23;;;24.27;;
2259;SDS011;333;48.800;9.530;2022-12-20T15:05:34;32.83;;;29.27;;
2259;SDS011;333;48.800;9.530;2022-12-20T15:08:09;40.63;;;30.43;;
2259;SDS011;333;48.800;9.530;2022-12-20T15:10:37;28.47;;;25.47;;
2259;SDS011;333;48.800;9.530;2022-12-20T15:13:08;31.97;;;26.70;;
2259;SDS011;333;48.800;9.530;2022-12-20T15:15:37;33.27;;;27.53;;
2259;SDS011;333;48.800;9.530;2022-12-20T15:18:09;32.73;;;27.93;;
2259;SDS011;333;48.800;9.530;2022-12-20T15:20:37;34.97;;;30.93;;
2259;SDS011;333;48.800;9.530;2022-12-20T15:23:04;41.07;;;31.53;;
2259;SDS011;333;48.800;9.530;2022-12-20T15:25:31;34.13;;;30.43;;
2259;SDS011;333;48.800;9.530;2022-12-20T15:28:01;35.03;;;29.70;;
2259;SDS011;333;48.800;9.530;2022-12-20T15:30:28;33.17;;;29.13;;
2259;SDS011;333;48.800;9.530;2022-12-20T15:32:55;34.43;;;30.30;;
2259;SDS011;333;48.800;9.530;2022-12-20T15:35:23;32.67;;;26.80;;